Tiempo atmosférico en la estación meteorológica de Hellín, Albacete (520 m.)



Fecha
DESCASC
Temp. máxima en grados centígrados (hora)
DESCASC
Temp. mínima en grados centígrados (hora)
DESCASC
Temp. media en grados centígrados
DESCASC
Racha de viento máxima en m/sg (hora)
DESCASC
Velocidad máxima media en intervalos de 10 minutos(hora)
DESCASC
Precipitaciones diarias en mm
DESCASC
Precipitaciones de 00:00 a 06:00 en mm
DESCASC
Precipitaciones de 06:00 a 12:00 en mm
DESCASC
Precipitaciones de 12:00 a 18:00 en mm
DESCASC
Precipitaciones de 18:00 a 24:00 en mm
DESCASC
23-06-2019 31.8 (16:00) 15.9 (06:40) 23.8 8.61 (20:30) 5.28 (20:30) 0 0 0 0 0
22-06-2019 29.7 (16:50) 18.5 (07:20) 24.1 9.72 (15:10) 4.72 (15:30) 0 0 0 0 0
21-06-2019 31.2 (17:50) 16 (06:40) 23.6 10 (14:20) 5 (19:20) 0 0 0 0 0
20-06-2019 32.4 (16:10) 18.8 (00:00) 25.6 9.44 (17:20) 5.83 (07:30) 0 0 0 0 0
19-06-2019 32.5 (19:00) 16.2 (00:00) 24.4 6.94 (10:20) 4.17 (10:40) 0 0 0 0 0
18-06-2019 30.9 (17:00) 15.1 (00:00) 23 8.89 (17:00) 4.44 (17:00) 0 0 0 0 0
17-06-2019 30.6 (15:50) 13.2 (00:00) 21.9 8.33 (18:40) 5 (20:00) 0 0 0 0 0
16-06-2019 25.2 (15:10) 14.2 (00:00) 19.7 8.06 (18:00) 4.72 (18:20) 0 0 0 0 0
15-06-2019 27.5 (18:30) 14.8 (00:00) 21.2 10.28 (11:30) 5.83 (09:50) 0 0 0 0 0
14-06-2019 29.8 (18:00) 14.4 (00:00) 22.1 11.94 (07:00) 7.78 (07:00) 1.5 0 1.3 0.2 0
13-06-2019 26.7 (17:20) 14.6 (00:00) 20.7 8.06 (18:00) 3.33 (00:30) 0 0 0 0 0
12-06-2019 24.5 (16:30) 10.9 (00:00) 17.7 11.39 (15:30) 4.44 (18:10) 0 0 0 0 0
11-06-2019 29.6 (16:30) 13.4 (00:00) 21.5 11.39 (19:20) 6.11 (19:10) 0 0 0 0 0
10-06-2019 29.6 (17:40) 16.3 (00:00) 22.9 11.67 (03:30) 5.28 (03:30) 0 0 0 0 0
09-06-2019 28.7 (18:30) 14.5 (00:00) 21.6 5.83 (20:20) 3.61 (20:20) 0 0 0 0 0
08-06-2019 25.7 (15:50) 14.5 (00:00) 20.1 9.17 (15:30) 5.28 (09:30) 0 0 0 0 0
07-06-2019 27.7 (16:50) 11.9 (00:00) 19.8 12.78 (12:30) 7.5 (12:30) 0 0 0 0 0
06-06-2019 26.3 (17:10) 12.9 (00:00) 19.6 8.89 (15:30) 4.44 (20:10) 0 0 0 0 0
05-06-2019 23.9 (15:40) 16.9 (00:00) 20.4 15.56 (16:20) 8.33 (10:10) 0 0 0 0 0
04-06-2019 31.5 (15:40) 15.1 (00:00) 23.3 8.06 (20:10) 4.17 (18:00) 0 0 0 0 0
03-06-2019 30.6 (17:40) 14 (00:00) 22.3 7.78 (18:40) 5 (18:40) 0 0 0 0 0
02-06-2019 29.1 (17:40) 12.8 (00:00) 21 7.5 (18:30) 3.89 (20:10) 0 0 0 0 0
01-06-2019 27.5 (17:10) 12 (00:00) 19.8 7.22 (19:30) 4.17 (19:50) 0 0 0 0 0
31-05-2019 26.3 (17:50) 11.2 (00:00) 18.7 7.78 (14:40) 3.89 (18:40) 0 0 0 0 0
30-05-2019 25 (17:10) 10.3 (00:00) 17.7 7.22 (16:20) 3.89 (19:30) 0 0 0 0 0
29-05-2019 25.6 (17:40) 11.9 (00:00) 18.8 7.78 (14:30) 4.17 (14:50) 0 0 0 0 0
28-05-2019 28.9 (17:30) 14.4 (00:00) 21.6 10 (18:40) 5.83 (18:30) 0 0 0 0 0
27-05-2019 28.6 (17:20) 12.6 (00:00) 20.6 10.28 (13:30) 4.72 (14:00) 0 0 0 0 0

Gráficas

Temp. máximas Temp. mínimas Temp. medias Precipitaciones Rachas de viento máximas Velocidades máximas media en intervalos de 10 minutos

Datos horarios

Fecha y hora oficial Temperatura (ºC) Velocidad del viento (km/h) Dirección del viento Racha (km/h) Dirección de racha Precipitación (mm) Presión (hPa) Tendencia (hPa) Humedad (%)
2019-06-25 23:00:00 22.7 8 Norte 21 Norte 0 948.4 2.6 75
2019-06-25 22:00:00 24.4 10 Nordeste 20 Nordeste 0 947.3 1.7 63
2019-06-25 21:00:00 27.3 10 Norte 22 Nordeste 0 946.2 0.5 52
2019-06-25 20:00:00 29.2 13 Nordeste 26 Nordeste 0 945.8 0 48
2019-06-25 19:00:00 31.4 8 Nordeste 27 Nordeste 0 945.6 -0.3 44
2019-06-25 18:00:00 31.7 17 Nordeste 28 Nordeste 0 945.7 -0.6 41
2019-06-25 17:00:00 33.7 11 Nordeste 31 Nordeste 0 945.8 -1.1 34
2019-06-25 16:00:00 33.8 8 Norte 23 Norte 0 945.9 -1.5 33
2019-06-25 15:00:00 33 12 Nordeste 21 Norte 0 946.3 -1.1 35
2019-06-25 14:00:00 30.5 9 Noroeste 17 Norte 0 946.9 -0.4 39
2019-06-25 13:00:00 29.1 4 Norte 13 Nordeste 0 947.4 -0.2 44
2019-06-25 12:00:00 27.6 3 Nordeste 15 Nordeste 0 947.4 -0.1 47
2019-06-25 11:00:00 26 4 Norte 12 Nordeste 0 947.3 0.1 48
2019-06-25 10:00:00 24.3 4 Nordeste 9 Nordeste 0 947.6 0.9 51
2019-06-25 09:00:00 22.9 0 Calma 5 Norte 0 947.5 1.3 53
2019-06-25 08:00:00 19.5 0 Calma 4 Sur 0 947.2 1.4 61
2019-06-25 07:00:00 17.7 0 Calma 14 Sudoeste 0 946.7 0 61
2019-06-25 06:00:00 18.5 6 Sudoeste 14 Sudoeste 0 946.2 -0.6 56
2019-06-25 05:00:00 18.7 0 Calma 9 Oeste 0 945.8 -0.9 54
2019-06-25 04:00:00 19 4 Oeste 8 Oeste 0 946.7 -0.1 54
2019-06-25 03:00:00 19.4 0 Calma 8 Oeste 0 946.8 0.1 53
2019-06-25 02:00:00 20.7 3 Oeste 7 Oeste 0 946.7 0.7 54
2019-06-25 01:00:00 21.7 2 Noroeste 8 Noroeste 0 946.8 1.6 63
2019-06-25 00:00:00 22.8 3 Norte 11 Norte 0 946.7 2.5 59
2019-06-24 23:00:00 24 4 Norte 11 Nordeste 0 946 2.2 54
2019-06-24 22:00:00 25.5 6 Norte 18 Nordeste 0 945.2 1.9 48
2019-06-24 21:00:00 27.9 10 Nordeste 19 Nordeste 0 944.2 0.6 41
2019-06-24 20:00:00 30 12 Nordeste 23 Nordeste 0 943.8 0.1 36
2019-06-24 19:00:00 31.7 11 Nordeste 22 Nordeste 0 943.3 -0.8 33
2019-06-24 18:00:00 32.6 6 Norte 17 Norte 0 943.6 -0.6 31
2019-06-24 17:00:00 32.4 9 Nordeste 22 Norte 0 943.7 -1.2 31
2019-06-24 16:00:00 31.5 9 Nordeste 17 Norte 0 944.1 -1.2 33
2019-06-24 15:00:00 30.7 4 Nordeste 17 Este 0 944.2 -1.4 33
2019-06-24 14:00:00 29.2 5 Este 15 Noroeste 0 944.9 -0.9 35
2019-06-24 13:00:00 27.5 5 Sudoeste 17 Noroeste 0 945.3 -0.7 36
2019-06-24 12:00:00 25.9 3 Oeste 13 Noroeste 0 945.6 -0.2 39
2019-06-24 11:00:00 24.3 6 Noroeste 14 Noroeste 0 945.8 0.2 44
2019-06-24 10:00:00 23.1 6 Oeste 12 Sudoeste 0 946 0.5 48
2019-06-24 09:00:00 20.8 6 Oeste 10 Oeste 0 945.8 0.7 53
2019-06-24 08:00:00 18.3 0 Calma 4 Noroeste 0 945.6 0 58
2019-06-24 07:00:00 16.8 0 Calma 13 Oeste 0 945.5 -0.1 58
2019-06-24 06:00:00 17.5 6 Oeste 14 Sudoeste 0 945.1 -0.9 57
2019-06-24 05:00:00 18.5 4 Sudoeste 16 Sudoeste 0 945.6 -1.1 56
2019-06-24 04:00:00 18.3 4 Sudoeste 15 Sudoeste 0 945.6 -1.3 57
2019-06-24 03:00:00 18.3 0 Calma 7 Sudeste 0 946 -0.9 57
2019-06-24 02:00:00 18.1 3 Sudeste 6 Sudeste 0 946.7 -0.1 57
2019-06-24 01:00:00 18.6 4 Sudeste 7 Sudeste 0 946.9 1.4 55
2019-06-24 00:00:00 19.9 4 Este 13 Nordeste 0 946.9 2.2 52
2019-06-23 23:00:00 21.5 11 Nordeste 23 Nordeste 0 946.8 3.1 46
2019-06-23 22:00:00 22.6 14 Nordeste 28 Nordeste 0 945.5 2 41
2019-06-23 21:00:00 24.8 15 Nordeste 31 Nordeste 0 944.7 1.1 35
2019-06-23 20:00:00 28.4 17 Nordeste 30 Nordeste 0 943.7 -0.5 31
2019-06-23 19:00:00 29.9 14 Nordeste 28 Nordeste 0 943.5 -1.1 31
2019-06-23 18:00:00 31 13 Nordeste 26 Nordeste 0 943.6 -1.4 30
2019-06-23 17:00:00 31 12 Nordeste 30 Nordeste 0 944.2 -1.2 30
2019-06-23 16:00:00 31.4 10 Norte 25 Norte 0 944.6 -1.1 28
2019-06-23 15:00:00 30.8 13 Nordeste 26 Nordeste 0 945 -0.8 27
2019-06-23 14:00:00 29.9 12 Nordeste 27 Norte 0 945.4 -0.8 28
2019-06-23 13:00:00 29.3 9 Norte 23 Norte 0 945.7 -0.6 29
2019-06-23 12:00:00 27.8 8 Norte 19 Nordeste 0 945.8 -0.5 32
2019-06-23 11:00:00 25.9 4 Nordeste 12 Norte 0 946.2 0.2 42
2019-06-23 10:00:00 23.8 3 Norte 7 Norte 0 946.3 0 50
2019-06-23 09:00:00 21.4 3 Sur 6 Sur 0 946.3 0.2 57
2019-06-23 08:00:00 18.5 0 Calma 5 Sudoeste 0 946 0 63
2019-06-23 07:00:00 16.3 4 Sudoeste 5 Sudoeste 0 946.3 0.2 67
2019-06-23 06:00:00 16 0 Calma 2 Oeste 0 946.1 -0.4 66
2019-06-23 05:00:00 17.2 0 Calma 6 Oeste 0 946 -0.9 63
2019-06-23 04:00:00 17.8 0 Calma 3 Sur 0 946.1 -1 63
2019-06-23 03:00:00 18.5 0 Calma 4 Oeste 0 946.5 -0.7 61
2019-06-23 02:00:00 18.3 0 Calma 10 Este 0 946.9 0.1 61
2019-06-23 01:00:00 19.3 6 Nordeste 16 Nordeste 0 947.1 1.3 61
2019-06-23 00:00:00 20.1 9 Nordeste 18 Nordeste 0 947.2 1.9 65
2019-06-22 23:00:00 21.3 4 Nordeste 16 Norte 0 946.8 1.8 55
2019-06-22 22:00:00 22.7 8 Nordeste 23 Nordeste 0 945.8 1 46
2019-06-22 21:00:00 24.5 11 Nordeste 26 Nordeste 0 945.3 0 44
2019-06-22 20:00:00 26.1 15 Nordeste 28 Nordeste 0 945 -0.4 42
2019-06-22 19:00:00 28.2 12 Nordeste 30 Nordeste 0 944.8 -1 37
2019-06-22 18:00:00 29 10 Norte 29 Nordeste 0 945.3 -1 38
2019-06-22 17:00:00 29.3 14 Nordeste 30 Nordeste 0 945.4 -1.4 39
2019-06-22 16:00:00 29 17 Nordeste 35 Nordeste 0 945.8 -1.6 38
2019-06-22 15:00:00 29 13 Nordeste 26 Nordeste 0 946.3 -1.3 38
2019-06-22 14:00:00 27.9 10 Norte 23 Nordeste 0 946.8 -0.9 39
2019-06-22 13:00:00 27.2 10 Nordeste 23 Este 0 947.4 -0.6 44
2019-06-22 12:00:00 25.6 8 Nordeste 19 Nordeste 0 947.6 -0.6 49
2019-06-22 11:00:00 23.8 6 Nordeste 14 Oeste 0 947.7 -0.4 57
2019-06-22 10:00:00 22.2 5 Nordeste 10 Noroeste 0 948 0.5 65
2019-06-22 09:00:00 19.9 6 Noroeste 12 Oeste 0 948.2 0.8 70
2019-06-22 08:00:00 18.9 4 Noroeste 12 Noroeste 0 948.1 1.2 72
2019-06-22 07:00:00 18.8 4 Noroeste 9 Oeste 0 947.5 0.1 71
2019-06-22 06:00:00 18.9 4 Oeste 8 Noroeste 0 947.4 -0.2 71
2019-06-22 05:00:00 18.9 0 Calma 5 Noroeste 0 946.9 -0.8 70
2019-06-22 04:00:00 18.7 2 Oeste 6 Oeste 0 947.4 -0.5 71
2019-06-22 03:00:00 19 5 Oeste 16 Noroeste 0 947.6 0 69
2019-06-22 02:00:00 19.4 9 Noroeste 17 Oeste 0 947.7 0.8 69
2019-06-22 01:00:00 19.8 11 Noroeste 18 Noroeste 0 947.9 2.1 72
2019-06-22 00:00:00 20.3 8 Noroeste 13 Noroeste 0 947.6 2.5 78
2019-06-21 23:00:00 21.1 3 Norte 15 Norte 0 946.9 2.8 77
2019-06-21 22:00:00 22.2 8 Nordeste 17 Nordeste 0 945.8 2.5 69
2019-06-21 21:00:00 24.1 8 Nordeste 20 Este 0 945.1 1.8 60
2019-06-21 20:00:00 26.1 10 Nordeste 31 Nordeste 0 944.1 0.5 50
2019-06-21 19:00:00 27.9 11 Norte 29 Nordeste 0 943.3 -0.7 41
2019-06-21 18:00:00 29.9 6 Norte 18 Nordeste 0 943.3 -0.9 29
2019-06-21 17:00:00 29.5 8 Noroeste 16 Noroeste 0 943.6 -1.2 30
2019-06-21 16:00:00 29.5 6 Noroeste 20 Norte 0 944 -0.9 30
2019-06-21 15:00:00 29.9 5 Norte 36 Sudoeste 0 944.2 -1.1 32
2019-06-21 14:00:00 28.6 7 Sudoeste 19 Norte 0 944.8 -0.6 33
2019-06-21 13:00:00 27.1 5 Nordeste 20 Noroeste 0 944.9 -0.7 37
2019-06-21 12:00:00 26.4 4 Sur 17 Sur 0 945.3 -0.2 39
2019-06-21 11:00:00 24.6 8 Sudoeste 16 Sur 0 945.4 0.2 44
2019-06-21 10:00:00 22.3 3 Nordeste 9 Nordeste 0 945.6 0.8 63
2019-06-21 09:00:00 19.9 2 Oeste 7 Noroeste 0 945.5 1.1 80
2019-06-21 08:00:00 17.7 0 Calma 4 Noroeste 0 945.2 1 95
2019-06-21 07:00:00 16 2 Sudoeste 4 Sudoeste 0 944.8 0.7 96
2019-06-21 06:00:00 16.6 0 Calma 3 Este 0 944.4 0.1 96
2019-06-21 05:00:00 16.9 0 Calma 4 Nordeste 0 944.2 -0.1 91
2019-06-21 04:00:00 17.3 0 Calma 8 Sudeste 0 944.1 -0.3 90
2019-06-21 03:00:00 17.8 3 Sudeste 5 Sur 0 944.3 0 84
2019-06-21 02:00:00 18.4 0 Calma 5 Este 0 944.3 0.5 81
2019-06-21 01:00:00 19.3 0 Calma 8 Este 0 944.4 1.3 78
2019-06-21 00:00:00 19.8 6 Sudeste 9 Sudeste 0 944.3 1.8 72
2019-06-20 23:00:00 21.8 3 Este 12 Nordeste 0 943.8 2.2 63
2019-06-20 22:00:00 23.5 4 Norte 15 Norte 0 943.1 1.6 56
2019-06-20 21:00:00 25.2 6 Norte 20 Nordeste 0 942.5 1.1 51
2019-06-20 20:00:00 27.3 10 Nordeste 26 Nordeste 0 941.6 0.2 46
2019-06-20 19:00:00 28 17 Nordeste 32 Nordeste 0 941.5 -0.2 44
2019-06-20 18:00:00 29.5 17 Nordeste 34 Nordeste 0 941.4 -1.1 39
2019-06-20 17:00:00 30.7 18 Nordeste 33 Nordeste 0 941.4 -1.9 33
2019-06-20 16:00:00 32.2 6 Este 19 Nordeste 0 941.7 -2.1 29
2019-06-20 15:00:00 31.3 8 Sudeste 19 Este 0 942.5 -1.6 31
2019-06-20 14:00:00 30.3 8 Nordeste 21 Sudoeste 0 943.3 -1 32
2019-06-20 13:00:00 28.1 5 Noroeste 18 Noroeste 0 943.8 -0.6 36
2019-06-20 12:00:00 27.3 0 Calma 16 Este 0 944.1 -0.4 38
2019-06-20 11:00:00 26.3 6 Sudoeste 21 Sur 0 944.3 -0.2 41
2019-06-20 10:00:00 24.5 12 Sur 26 Sudoeste 0 944.4 0.2 45
2019-06-20 09:00:00 22.1 14 Sudoeste 28 Sudoeste 0 944.5 0.2 49
2019-06-20 08:00:00 19.9 19 Sur 30 Sudoeste 0 944.5 0.3 53
2019-06-20 07:00:00 18.8 19 Sur 27 Sur 0 944.2 -0.3 54
2019-06-20 06:00:00 19 18 Sur 25 Sudoeste 0 944.3 -0.3 52
2019-06-20 05:00:00 19.4 14 Sudoeste 28 Sudoeste 0 944.2 -0.6 49
2019-06-20 04:00:00 20.3 14 Sudoeste 27 Sudoeste 0 944.5 -0.3 44
2019-06-20 03:00:00 21.4 12 Sur 24 Sur 0 944.6 0 40
2019-06-20 02:00:00 21.9 9 Sur 31 Sur 0 944.8 0.3 36
2019-06-20 01:00:00 22.4 10 Sur 23 Sudoeste 0 944.8 0.9 36
2019-06-20 00:00:00 22 0 Calma 11 Sudoeste 0 944.6 1.1 41
2019-06-19 23:00:00 23.7 5 Sur 11 Sur 0 944.5 1.5 38
2019-06-19 22:00:00 26.4 0 Calma 23 Norte 0 943.9 1.2 34
2019-06-19 21:00:00 28.8 11 Norte 23 Norte 0 943.5 0.6 31
2019-06-19 20:00:00 31.3 9 Norte 22 Norte 0 943 -0.6 28
2019-06-19 19:00:00 32.3 4 Norte 16 Norte 0 942.7 -1.4 27
2019-06-19 18:00:00 31.8 4 Noroeste 15 Sudoeste 0 942.9 -1.8 29
2019-06-19 17:00:00 31.3 4 Norte 17 Sudoeste 0 943.6 -2.1 30
2019-06-19 16:00:00 31.2 0 Calma 15 Sudeste 0 944.1 -1.8 31
2019-06-19 15:00:00 29.5 0 Calma 20 Nordeste 0 944.7 -1.3 34
2019-06-19 14:00:00 28.5 4 Sudoeste 16 Sudoeste 0 945.7 -0.3 37
2019-06-19 13:00:00 27.5 6 Sudeste 21 Sudoeste 0 945.9 -0.2 39
2019-06-19 12:00:00 25.8 10 Sur 24 Sur 0 946 -0.2 44
2019-06-19 11:00:00 24.7 12 Sur 25 Sudeste 0 946 -0.1 48
2019-06-19 10:00:00 23.9 11 Sur 21 Sur 0 946.1 0.3 53
2019-06-19 09:00:00 21.6 11 Sur 19 Sur 0 946.2 0.4 56
2019-06-19 08:00:00 19.6 5 Sudoeste 15 Sudeste 0 946.1 0.7 56
2019-06-19 07:00:00 18.1 5 Sudeste 15 Sudeste 0 945.8 0.7 57
2019-06-19 06:00:00 16.5 0 Calma 4 Sudoeste 0 945.8 0.4 68
2019-06-19 05:00:00 17 0 Calma 9 Sudoeste 0 945.4 -0.5 66
2019-06-19 04:00:00 18.3 6 Sur 10 Sur 0 945.1 -1.1 64
2019-06-19 03:00:00 18.4 2 Sur 4 Sur 0 945.4 -0.8 63
2019-06-19 02:00:00 18.4 0 Calma 4 Sudeste 0 945.9 0.1 61
2019-06-19 01:00:00 18.6 4 Este 5 Norte 0 946.2 1.3 58
2019-06-19 00:00:00 20 2 Nordeste 6 Nordeste 0 946.2 1.5 53
2019-06-18 23:00:00 22 3 Nordeste 14 Norte 0 945.8 1.3 46
2019-06-18 22:00:00 23.7 6 Norte 15 Norte 0 944.9 0.9 41
2019-06-18 21:00:00 25.8 9 Norte 21 Norte 0 944.7 0.4 37
2019-06-18 20:00:00 27.8 11 Norte 26 Norte 0 944.5 0.2 35
2019-06-18 19:00:00 28.7 12 Norte 26 Norte 0 944 -0.6 34
2019-06-18 18:00:00 29.8 12 Norte 27 Norte 0 944.3 -0.8 32
2019-06-18 17:00:00 30.1 16 Norte 32 Noroeste 0 944.3 -1.5 30
2019-06-18 16:00:00 30 11 Noroeste 28 Noroeste 0 944.6 -1.6 30
2019-06-18 15:00:00 29.3 11 Noroeste 27 Norte 0 945.1 -1.3 28
2019-06-18 14:00:00 28.6 14 Norte 25 Noroeste 0 945.8 -0.5 29
2019-06-18 13:00:00 27.9 9 Norte 23 Noroeste 0 946.2 -0.5 32
2019-06-18 12:00:00 25.9 8 Norte 16 Norte 0 946.4 -0.6 35
2019-06-18 11:00:00 24.2 4 Noroeste 12 Oeste 0 946.3 -0.4 42
2019-06-18 10:00:00 21.9 3 Oeste 10 Noroeste 0 946.7 0.1 46
2019-06-18 09:00:00 20.6 3 Oeste 6 Sudeste 0 947 0.5 51
2019-06-18 08:00:00 17.3 0 Calma 6 Sur 0 946.7 0.3 60
2019-06-18 07:00:00 15.6 4 Sur 9 Sur 0 946.6 0.1 60
2019-06-18 06:00:00 16.1 7 Sur 11 Sur 0 946.5 -0.7 58
2019-06-18 05:00:00 16.3 5 Sur 8 Sudeste 0 946.4 -1.1 57
2019-06-18 04:00:00 16.8 0 Calma 3 Sur 0 946.5 -1.2 55
2019-06-18 03:00:00 17.2 0 Calma 2 Sudoeste 0 947.2 -0.5 52
2019-06-18 02:00:00 17.8 0 Calma 4 Oeste 0 947.5 0.2 51
2019-06-18 01:00:00 18.8 0 Calma 16 Noroeste 0 947.7 1.3 48
2019-06-18 00:00:00 20.1 7 Noroeste 24 Noroeste 0 947.7 1.8 44
2019-06-17 23:00:00 21.1 11 Noroeste 21 Noroeste 0 947.3 1.7 43
2019-06-17 22:00:00 22.6 13 Noroeste 30 Norte 0 946.4 1.1 38
2019-06-17 21:00:00 24.9 15 Noroeste 30 Noroeste 0 945.9 0.1 34
2019-06-17 20:00:00 27 18 Noroeste 30 Oeste 0 945.6 -0.3 31
2019-06-17 19:00:00 29.2 12 Oeste 30 Sudoeste 0 945.3 -1.2 27
2019-06-17 18:00:00 30.1 10 Sudoeste 26 Oeste 0 945.8 -1.2 24
2019-06-17 17:00:00 30.5 9 Sudoeste 24 Oeste 0 945.9 -1.7 25
2019-06-17 16:00:00 30.5 10 Oeste 24 Oeste 0 946.5 -1.7 25
2019-06-17 15:00:00 29.5 10 Oeste 22 Oeste 0 947 -1.8 27
2019-06-17 14:00:00 28.3 4 Noroeste 19 Sur 0 947.6 -1.3 30
2019-06-17 13:00:00 26.9 2 Sudoeste 13 Oeste 0 948.2 -0.8 36
2019-06-17 12:00:00 24.7 5 Oeste 13 Oeste 0 948.8 -0.4 42
2019-06-17 11:00:00 22.9 4 Oeste 10 Oeste 0 948.9 -0.1 51
2019-06-17 10:00:00 21 3 Sudoeste 7 Oeste 0 949 0.1 59
2019-06-17 09:00:00 18.6 0 Calma 8 Nordeste 0 949.2 0.5 66
2019-06-17 08:00:00 15.8 3 Sudeste 9 Este 0 949 0.4 80
2019-06-17 07:00:00 13.4 3 Este 6 Este 0 948.9 0 87
2019-06-17 06:00:00 14.3 5 Este 8 Este 0 948.7 -0.5 83
2019-06-17 05:00:00 14.4 4 Este 6 Este 0 948.6 -1.1 81
2019-06-17 04:00:00 15.1 0 Calma 4 Este 0 948.9 -0.9 78
2019-06-17 03:00:00 15.6 2 Sudeste 3 Sudeste 0 949.2 -0.6 75
2019-06-17 02:00:00 16 0 Calma 3 Sudeste 0 949.7 -0.1 75
2019-06-17 01:00:00 16 0 Calma 6 Norte 0 949.8 0.6 74
2019-06-17 00:00:00 17.2 2 Oeste 10 Oeste 0 949.8 0.8 70
2019-06-16 23:00:00 18.5 4 Oeste 14 Oeste 0 949.8 1.2 66
2019-06-16 22:00:00 19.5 6 Sudoeste 17 Oeste 0 949.2 0.1 56
2019-06-16 21:00:00 21 9 Oeste 20 Oeste 0 949 0.4 53
2019-06-16 20:00:00 22.9 9 Sudoeste 26 Oeste 0 948.6 -0.1 52
2019-06-16 19:00:00 23.4 15 Oeste 28 Oeste 0 949.1 -0.4 48
2019-06-16 18:00:00 23.6 17 Oeste 29 Oeste 0 948.6 -0.8 46
2019-06-16 17:00:00 23.8 11 Oeste 26 Oeste 0 948.7 -1.4 42
2019-06-16 16:00:00 24 15 Oeste 28 Oeste 0 949.5 -1 35
2019-06-16 15:00:00 24.5 12 Oeste 21 Oeste 0 949.4 -1.1 35
2019-06-16 14:00:00 24.8 11 Oeste 25 Oeste 0 950.1 -0.7 34
2019-06-16 13:00:00 23.7 11 Oeste 27 Oeste 0 950.5 -0.1 37
2019-06-16 12:00:00 22.3 7 Oeste 18 Sudoeste 0 950.5 0 44
2019-06-16 11:00:00 20.9 6 Oeste 13 Sudoeste 0 950.8 0.6 50
2019-06-16 10:00:00 19.1 5 Sur 13 Sur 0 950.6 1.1 59
2019-06-16 09:00:00 17.2 9 Sudeste 17 Sudeste 0 950.5 1.5 60
2019-06-16 08:00:00 16.4 5 Sudeste 11 Sudeste 0 950.2 1.3 60
2019-06-16 07:00:00 14.6 3 Este 10 Este 0 949.5 0.4 62
2019-06-16 06:00:00 14.6 9 Este 13 Este 0 949 -0.6 62
2019-06-16 05:00:00 15 5 Este 8 Este 0 948.9 -0.9 58
2019-06-16 04:00:00 16.4 3 Este 8 Este 0 949.1 -0.7 54
2019-06-16 03:00:00 16.8 5 Este 8 Este 0 949.6 -0.1 52
2019-06-16 02:00:00 16.8 2 Norte 6 Norte 0 949.8 0.5 50
2019-06-16 01:00:00 17.7 5 Norte 7 Norte 0 949.8 1.5 47
2019-06-16 00:00:00 19.1 3 Norte 6 Norte 0 949.7 2.5 43
2019-06-15 23:00:00 21.9 5 Sudoeste 12 Oeste 0 949.3 2.3 37
2019-06-15 22:00:00 23.3 5 Sudoeste 14 Sudoeste 0 948.3 1.7 35
2019-06-15 21:00:00 25.8 7 Este 14 Este 0 947.2 0.8 27
2019-06-15 20:00:00 27.1 6 Este 14 Sur 0 947 -0.3 27
2019-06-15 19:00:00 27.1 5 Sudeste 20 Sudeste 0 946.6 -1.1 27
2019-06-15 18:00:00 27.3 3 Este 27 Sudeste 0 946.4 -1.9 28
2019-06-15 17:00:00 26.8 2 Sudoeste 17 Sudoeste 0 947.3 -1.7 28
2019-06-15 16:00:00 26.6 5 Sudoeste 15 Nordeste 0 947.7 -1.8 30
2019-06-15 15:00:00 24.6 4 Sudeste 22 Nordeste 0 948.3 -1.3 32
2019-06-15 14:00:00 24.1 8 Este 29 Este 0 949 -0.9 33
2019-06-15 13:00:00 22.5 11 Nordeste 25 Este 0 949.5 -0.2 36
2019-06-15 12:00:00 20.9 7 Este 37 Nordeste 0 949.6 0.3 39
2019-06-15 11:00:00 19.4 13 Nordeste 33 Este 0 949.9 1.2 41
2019-06-15 10:00:00 17.7 18 Nordeste 71 Nordeste 0 949.7 1.6 43
2019-06-15 09:00:00 16.8 19 Nordeste 30 Norte 0 949.3 1.5 44
2019-06-15 08:00:00 15.6 5 Nordeste 13 Este 0 948.7 1.2 46
2019-06-15 07:00:00 15.1 6 Nordeste 30 Nordeste 0 948.1 1 44
2019-06-15 06:00:00 15.7 15 Nordeste 30 Nordeste 0 947.8 0.5 43
2019-06-15 05:00:00 15.9 12 Nordeste 22 Nordeste 0 947.5 0.3 43
2019-06-15 04:00:00 16.5 11 Nordeste 26 Nordeste 0 947.1 0.2 42
2019-06-15 03:00:00 17.1 12 Norte 23 Nordeste 0 947.3 0.8 39
2019-06-15 02:00:00 17.6 12 Nordeste 27 Norte 0 947.2 1.6 35
2019-06-15 01:00:00 18.6 12 Norte 23 Norte 0 946.9 2.4 35
2019-06-15 00:00:00 19.8 10 Norte 32 Norte 0 946.5 2.6 35
2019-06-14 23:00:00 21.4 15 Norte 29 Norte 0 945.6 3 33
2019-06-14 22:00:00 22.8 8 Noroeste 24 Norte 0 944.5 2.4 32
2019-06-14 21:00:00 25.3 14 Noroeste 24 Noroeste 0 943.9 1.6 29
2019-06-14 20:00:00 27.9 12 Sudoeste 22 Oeste 0 942.6 0.1 33
2019-06-14 19:00:00 29.2 7 Oeste 23 Noroeste 0 942.1 -0.7 30
2019-06-14 18:00:00 29.5 3 Noroeste 22 Noroeste 0 942.3 -0.9 28
2019-06-14 17:00:00 28.8 4 Sudoeste 24 Oeste 0 942.5 -0.8 31
2019-06-14 16:00:00 28.2 6 Oeste 20 Sur 0 942.8 -0.8 30
2019-06-14 15:00:00 27.6 10 Noroeste 23 Oeste 0.1 943.2 -0.4 30
2019-06-14 14:00:00 26.2 8 Oeste 20 Oeste 0.1 943.3 -0.3 32
2019-06-14 13:00:00 25.1 12 Oeste 22 Oeste 0 943.6 0.1 39
2019-06-14 12:00:00 23.7 9 Oeste 17 Oeste 0.1 943.6 0.5 42
2019-06-14 11:00:00 21.7 5 Noroeste 17 Noroeste 0.1 943.6 1.1 52
2019-06-14 10:00:00 19.1 10 Noroeste 16 Noroeste 0.1 943.5 2.3 72
2019-06-14 09:00:00 16.9 9 Norte 16 Norte 0.3 943.1 0.9 92
2019-06-14 08:00:00 14.7 5 Nordeste 35 Norte 0.4 942.5 2 95
2019-06-14 07:00:00 14.8 28 Nordeste 43 Norte 0.3 941.2 -0.4 95
2019-06-14 06:00:00 15.9 8 Noroeste 13 Noroeste 0 942.2 1.2 78
2019-06-14 05:00:00 15.8 9 Este 14 Este 0 940.5 -1.6 73
2019-06-14 04:00:00 16.2 2 Sudeste 12 Este 0 941.6 -1 72
2019-06-14 03:00:00 16.1 9 Nordeste 15 Nordeste 0 941 -2.2 72
2019-06-14 02:00:00 16.6 3 Sudeste 10 Sudeste 0 942.1 -0.6 72
2019-06-14 01:00:00 17 8 Sudeste 16 Sudeste 0 942.6 1.1 70
2019-06-14 00:00:00 17.5 6 Sudeste 19 Sudeste 0 943.2 2.7 67
2019-06-13 23:00:00 18.5 10 Sudeste 19 Sur 0 942.7 3.3 61
2019-06-13 22:00:00 19.6 9 Sur 23 Sudeste 0 941.5 1.8 57
2019-06-13 21:00:00 21.7 9 Sudoeste 20 Sudoeste 0 940.5 0.7 51
2019-06-13 20:00:00 23.6 11 Sudoeste 23 Oeste 0 939.4 -0.8 46
2019-06-13 19:00:00 25 10 Sudoeste 23 Sudoeste 0 939.7 -0.9 43
2019-06-13 18:00:00 26.1 11 Sudoeste 29 Sudoeste 0 939.8 -1.4 42
2019-06-13 17:00:00 26.6 7 Sudoeste 23 Sudoeste 0 940.2 -1.7 40
2019-06-13 16:00:00 25.8 7 Sudoeste 23 Sudoeste 0 940.6 -2.1 42
2019-06-13 15:00:00 24.5 7 Sudoeste 24 Oeste 0 941.2 -2.4 46
2019-06-13 14:00:00 23.3 4 Oeste 20 Sur 0 941.9 -2 51
2019-06-13 13:00:00 20.9 4 Sudoeste 23 Oeste 0 942.7 -0.6 58
2019-06-13 12:00:00 19.3 3 Sudeste 20 Sudeste 0 943.6 -0.7 68
2019-06-13 11:00:00 18 3 Sudoeste 15 Sudoeste 0 943.9 0.4 83
2019-06-13 10:00:00 16.8 8 Sudoeste 17 Sur 0 943.3 0 86
2019-06-13 09:00:00 16.1 2 Sudoeste 11 Sur 0 944.3 1.4 88
2019-06-13 08:00:00 15.6 5 Sur 13 Sur 0 943.5 0.3 90
2019-06-13 07:00:00 15 0 Calma 7 Sur 0 943.3 -0.3 91
2019-06-13 06:00:00 15.1 3 Noroeste 8 Noroeste 0 942.9 -1 89
2019-06-13 05:00:00 15.4 0 Calma 9 Oeste 0 943.2 -1.3 89
2019-06-13 04:00:00 15.6 3 Sudoeste 12 Sudoeste 0 943.6 -1 88
2019-06-13 03:00:00 15.4 4 Sudoeste 15 Sudoeste 0 943.9 -0.7 90
2019-06-13 02:00:00 15.2 9 Sudoeste 19 Sudoeste 0 944.5 0.4 93
2019-06-13 01:00:00 15 9 Sudoeste 22 Sudoeste 0 944.6 0.9 93
2019-06-13 00:00:00 15 12 Oeste 23 Sudoeste 0 944.6 1.7 93
2019-06-12 23:00:00 15.7 10 Sudoeste 24 Sudoeste 0 944.1 1.6 86
2019-06-12 22:00:00 16.7 8 Sudoeste 24 Sudoeste 0 943.7 1.5 75
2019-06-12 21:00:00 18.6 14 Sudoeste 26 Oeste 0 942.9 0.5 63
2019-06-12 20:00:00 20.8 14 Sudoeste 31 Sudoeste 0 942.5 -0.1 49
2019-06-12 19:00:00 22.5 13 Sudoeste 31 Sudoeste 0 942.2 -0.8 42
2019-06-12 18:00:00 23.7 11 Sudoeste 30 Sudoeste 0 942.4 -0.9 39
2019-06-12 17:00:00 24 10 Sudoeste 28 Sudoeste 0 942.6 -1.6 38
2019-06-12 16:00:00 23.6 11 Sudoeste 41 Sur 0 943 -1.8 41
2019-06-12 15:00:00 22.5 10 Sudoeste 25 Sur 0 943.3 -2.2 46
2019-06-12 14:00:00 21.4 6 Sudoeste 26 Sudoeste 0 944.2 -1.6 50
2019-06-12 13:00:00 19.3 7 Sudoeste 26 Sudoeste 0 944.8 -0.7 56
2019-06-12 12:00:00 18 12 Oeste 23 Oeste 0 945.5 -0.1 59
2019-06-12 11:00:00 15.9 7 Oeste 14 Oeste 0 945.8 0.5 74
2019-06-12 10:00:00 13.9 3 Sudoeste 10 Este 0 945.5 0.5 76
2019-06-12 09:00:00 12.7 5 Sudeste 13 Sudeste 0 945.6 1.1 77
2019-06-12 08:00:00 12.1 5 Sudeste 11 Sudeste 0 945.3 1.1 81
2019-06-12 07:00:00 11.2 4 Este 7 Este 0 945 0.8 87
2019-06-12 06:00:00 11.5 3 Este 7 Este 0 944.5 0.3 86
2019-06-12 05:00:00 11.4 4 Este 6 Este 0 944.2 -0.6 86
2019-06-12 04:00:00 11.7 2 Este 5 Nordeste 0 944.2 -0.5 84
2019-06-12 03:00:00 12.1 3 Este 5 Sudeste 0 944.2 -0.6 81
2019-06-12 02:00:00 13 0 Calma 12 Sudeste 0 944.8 0.1 77
2019-06-12 01:00:00 13.9 5 Sudeste 13 Sudeste 0 944.7 1.1 75
2019-06-12 00:00:00 14.5 6 Sudeste 15 Sur 0 944.8 1.9 75
2019-06-11 23:00:00 14.8 8 Sur 23 Sudeste 0 944.7 2.7 74
2019-06-11 22:00:00 15.7 10 Sudeste 27 Sudeste 0 943.6 3.1 69
2019-06-11 21:00:00 16.6 17 Sudeste 33 Sudeste 0 942.9 3.1 66
2019-06-11 20:00:00 18 18 Sudeste 41 Sudeste 0 942 3 63
2019-06-11 19:00:00 20.5 20 Sudeste 34 Nordeste 0 940.5 1.9 54
2019-06-11 18:00:00 24.9 15 Nordeste 39 Nordeste 0 939.8 1.2 31
2019-06-11 17:00:00 26.7 12 Norte 35 Norte 0 939 0 27
2019-06-11 16:00:00 28.9 12 Noroeste 36 Norte 0 938.6 -1 27
2019-06-11 15:00:00 28.1 9 Norte 32 Noroeste 0 938.6 -1.3 27
2019-06-11 14:00:00 26.9 12 Norte 30 Norte 0 939 -1.3 28
2019-06-11 13:00:00 26 15 Norte 33 Noroeste 0 939.6 -1 30
2019-06-11 12:00:00 24.6 17 Noroeste 31 Noroeste 0 939.9 -1.1 32
2019-06-11 11:00:00 23.8 9 Noroeste 24 Oeste 0 940.3 -0.9 34
2019-06-11 10:00:00 22 6 Oeste 19 Noroeste 0 940.6 -0.3 42
2019-06-11 09:00:00 20.3 3 Nordeste 14 Este 0 941 0.4 46
2019-06-11 08:00:00 17.2 0 Calma 10 Norte 0 941.2 -0.1 52
2019-06-11 07:00:00 13.5 0 Calma 8 Este 0 940.9 -0.9 62
2019-06-11 06:00:00 14.7 5 Este 8 Nordeste 0 940.6 -1.8 66
2019-06-11 05:00:00 14.1 0 Calma 6 Nordeste 0 941.3 -1.8 67
2019-06-11 04:00:00 15.8 5 Nordeste 7 Este 0 941.8 -1.6 63
2019-06-11 03:00:00 15.6 2 Norte 6 Norte 0 942.4 -1.4 61
2019-06-11 02:00:00 16.1 3 Noroeste 4 Noroeste 0 943.1 -0.9 59
2019-06-11 01:00:00 17.3 0 Calma 3 Noroeste 0 943.4 0.1 56
2019-06-11 00:00:00 18.8 0 Calma 7 Sur 0 943.8 1 53
2019-06-10 23:00:00 19.9 4 Sudeste 9 Sur 0 944 1.7 51
2019-06-10 22:00:00 21.4 3 Sur 17 Oeste 0 943.3 1.6 46
2019-06-10 21:00:00 23.2 9 Sudoeste 21 Sudoeste 0 942.8 0.7 42
2019-06-10 20:00:00 25.2 9 Sudoeste 28 Sudoeste 0 942.3 -0.2 36
2019-06-10 19:00:00 27.9 13 Sudoeste 26 Oeste 0 941.7 -1.7 30
2019-06-10 18:00:00 28.7 7 Oeste 20 Oeste 0 942.1 -1.8 23
2019-06-10 17:00:00 29 8 Oeste 26 Oeste 0 942.5 -2.2 24
2019-06-10 16:00:00 28 3 Sur 32 Norte 0 943.4 -2 27
2019-06-10 15:00:00 27.3 13 Nordeste 30 Nordeste 0 943.9 -1.7 28
2019-06-10 14:00:00 26 8 Norte 30 Nordeste 0 944.7 -1 30
2019-06-10 13:00:00 25.1 13 Nordeste 31 Norte 0 945.4 -0.7 31
2019-06-10 12:00:00 24 13 Nordeste 35 Norte 0 945.6 -0.6 33
2019-06-10 11:00:00 23.1 8 Nordeste 21 Nordeste 0 945.7 0 37
2019-06-10 10:00:00 21.9 10 Nordeste 24 Norte 0 946.1 0.6 39
2019-06-10 09:00:00 19.8 10 Nordeste 24 Este 0 946.2 0.7 41
2019-06-10 08:00:00 18 5 Norte 20 Norte 0 945.7 0.3 43
2019-06-10 07:00:00 16.5 10 Norte 30 Norte 0 945.5 -0.3 43
2019-06-10 06:00:00 17.8 17 Norte 28 Norte 0 945.5 -0.3 41
2019-06-10 05:00:00 18.6 14 Norte 32 Norte 0 945.4 -0.7 38
2019-06-10 04:00:00 19.3 18 Norte 42 Norte 0 945.8 -0.4 37
2019-06-10 03:00:00 19.7 16 Norte 31 Norte 0 945.8 -0.4 35
2019-06-10 02:00:00 20.2 15 Norte 29 Norte 0 946.1 0.4 35
2019-06-10 01:00:00 21.5 15 Norte 28 Norte 0 946.2 1.1 42
2019-06-10 00:00:00 20.2 5 Nordeste 8 Nordeste 0 946.2 1.8 56
2019-06-09 23:00:00 21 0 Calma 9 Sudoeste 0 945.7 1.6 52
2019-06-09 22:00:00 22.7 5 Sudoeste 19 Oeste 0 945.1 1.3 46
2019-06-09 21:00:00 25.1 11 Sudoeste 21 Sudoeste 0 944.4 0.4 35
2019-06-09 20:00:00 26.7 9 Sudoeste 19 Oeste 0 944.1 -0.6 31
2019-06-09 19:00:00 28.5 5 Sudoeste 18 Sudoeste 0 943.8 -1.7 28
2019-06-09 18:00:00 28 0 Calma 12 Sudeste 0 944 -2 30
2019-06-09 17:00:00 27.3 5 Sur 19 Sudoeste 0 944.7 -2.2 32
2019-06-09 16:00:00 25.8 5 Sudoeste 13 Sudoeste 0 945.5 -2.3 36
2019-06-09 15:00:00 23.4 2 Noroeste 10 Noroeste 0 946 -1.9 39
2019-06-09 14:00:00 22.5 0 Calma 12 Nordeste 0 946.9 -0.7 48
2019-06-09 13:00:00 21.3 5 Noroeste 12 Norte 0 947.8 -0.4 57
2019-06-09 12:00:00 19.2 3 Oeste 12 Sudeste 0 947.9 0.2 66
2019-06-09 11:00:00 17.8 2 Este 10 Noroeste 0 947.6 -0.2 71
2019-06-09 10:00:00 17 0 Calma 5 Oeste 0 948.2 1.2 73
2019-06-09 09:00:00 16 0 Calma 9 Nordeste 0 947.7 0 78
2019-06-09 08:00:00 15.1 2 Sudeste 9 Este 0 947.8 0.8 78
2019-06-09 07:00:00 14.8 3 Sudeste 9 Nordeste 0 947 -1.9 78
2019-06-09 06:00:00 14.9 2 Nordeste 15 Nordeste 0 947.7 -1.2 78
2019-06-09 05:00:00 14.6 8 Este 15 Este 0 947 -2.5 80
2019-06-09 04:00:00 15 5 Este 17 Sudeste 0 948.9 -0.9 78
2019-06-09 03:00:00 15.3 9 Este 17 Sudeste 0 948.9 -1.1 75
2019-06-09 02:00:00 15.9 7 Este 16 Sudeste 0 949.5 -0.3 70
2019-06-09 01:00:00 16.3 6 Este 14 Este 0 949.8 0.5 68
2019-06-09 00:00:00 17.1 6 Este 14 Sudeste 0 950 0.8 65
2019-06-08 23:00:00 18 9 Sudeste 16 Sudeste 0 949.8 1.1 61
2019-06-08 22:00:00 19 8 Sudeste 23 Sudeste 0 949.3 0.7 57
2019-06-08 21:00:00 20.8 12 Sudeste 30 Sudeste 0 949.2 0.5 51
2019-06-08 20:00:00 22.9 11 Sudeste 27 Sudeste 0 948.7 0 47
2019-06-08 19:00:00 23.7 10 Sur 26 Sudeste 0 948.6 -0.6 46
2019-06-08 18:00:00 24.3 10 Sudeste 28 Sur 0 948.7 -0.8 45
2019-06-08 17:00:00 24.6 10 Sudeste 30 Este 0 948.7 -1.6 45
2019-06-08 16:00:00 25.2 12 Sudeste 33 Este 0 949.2 -1.7 43
2019-06-08 15:00:00 25 12 Sudeste 30 Sudeste 0 949.5 -1.8 44
2019-06-08 14:00:00 24.2 10 Sudeste 28 Sudeste 0 950.3 -1.2 45
2019-06-08 13:00:00 23.1 9 Sudeste 30 Sur 0 950.9 -0.5 47
2019-06-08 12:00:00 21.8 10 Este 24 Sudeste 0 951.3 0.1 51
2019-06-08 11:00:00 20.1 13 Este 27 Este 0 951.5 0.8 60
2019-06-08 10:00:00 18.8 13 Este 32 Nordeste 0 951.4 1.3 66
2019-06-08 09:00:00 17.3 11 Nordeste 29 Nordeste 0 951.2 1.3 70
2019-06-08 08:00:00 16.1 10 Nordeste 19 Norte 0 950.7 0.9 63
2019-06-08 07:00:00 14.6 7 Norte 12 Norte 0 950.1 0.3 57
2019-06-08 06:00:00 15.1 8 Norte 18 Norte 0 949.9 0.2 51
2019-06-08 05:00:00 14.8 4 Noroeste 11 Norte 0 949.8 0.3 36
2019-06-08 04:00:00 15.6 2 Norte 5 Sudeste 0 949.8 0.3 36
2019-06-08 03:00:00 15.9 3 Nordeste 4 Este 0 949.7 0.2 28
2019-06-08 02:00:00 16.5 0 Calma 9 Noroeste 0 949.5 0.3 28
2019-06-08 01:00:00 17.6 7 Noroeste 13 Noroeste 0 949.5 1.1 26
2019-06-08 00:00:00 18.7 6 Norte 12 Norte 0 949.5 2.5 25
2019-06-07 23:00:00 20.3 6 Norte 11 Noroeste 0 949.2 3 24
2019-06-07 22:00:00 21.4 5 Noroeste 18 Norte 0 948.4 2.7 24
2019-06-07 21:00:00 23.5 10 Norte 26 Norte 0 947 1.4 24
2019-06-07 20:00:00 25.2 13 Noroeste 26 Norte 0 946.2 0.6 25
2019-06-07 19:00:00 26.2 14 Noroeste 26 Norte 0 945.7 0.1 25
2019-06-07 18:00:00 25.8 15 Norte 29 Norte 0 945.6 0 26
2019-06-07 17:00:00 27.5 4 Oeste 21 Sur 0 945.6 -0.2 25
2019-06-07 16:00:00 27 5 Sudoeste 26 Sur 0 945.6 -0.1 28
2019-06-07 15:00:00 25.8 14 Sudoeste 32 Oeste 0 945.6 -0.2 28
2019-06-07 14:00:00 25 16 Sudoeste 38 Sudoeste 0 945.8 0.4 29
2019-06-07 13:00:00 23.6 19 Oeste 46 Sudoeste 0 945.7 0.8 34
2019-06-07 12:00:00 21.7 22 Sudoeste 39 Sudoeste 0 945.8 0.9 40
2019-06-07 11:00:00 21 22 Sudoeste 36 Sudoeste 0 945.4 1.1 44
2019-06-07 10:00:00 19.5 11 Sudoeste 24 Sudoeste 0 944.9 1.2 49
2019-06-07 09:00:00 17.4 17 Sudoeste 25 Sudoeste 0 944.9 2.1 54
2019-06-07 08:00:00 15.9 10 Sudoeste 26 Sudoeste 0 944.3 1.7 55
2019-06-07 07:00:00 14.7 15 Sudoeste 25 Sudoeste 0 943.7 1.2 53
2019-06-07 06:00:00 12 6 Sudoeste 27 Sudoeste 0 942.8 0.2 98
2019-06-07 05:00:00 12.7 0 Calma 0 Calma 0 942.6 0.1 98
2019-06-07 04:00:00 13.7 0 Calma 9 Sudeste 0 942.5 0 97
2019-06-07 03:00:00 14.4 5 Sudeste 10 Sudeste 0 942.6 0.1 95
2019-06-07 02:00:00 15.2 6 Sudeste 10 Sudeste 0 942.5 0.2 90
2019-06-07 01:00:00 16.2 7 Sudeste 15 Sudeste 0 942.5 1.1 85
2019-06-07 00:00:00 17.2 7 Sudeste 19 Sudeste 0 942.5 1.2 76
2019-06-06 23:00:00 18.4 9 Sudeste 18 Sudeste 0 942.3 1.5 62
2019-06-06 22:00:00 19.4 9 Sudeste 23 Sudeste 0 941.4 0.9 56
2019-06-06 21:00:00 21.2 10 Sudeste 27 Sudeste 0 941.3 0.5 48
2019-06-06 20:00:00 23.2 10 Sudeste 26 Sudeste 0 940.8 -0.7 40
2019-06-06 19:00:00 24.6 14 Sudeste 26 Este 0 940.5 -1.5 36
2019-06-06 18:00:00 25.9 9 Este 25 Este 0 940.8 -2 34
2019-06-06 17:00:00 26 11 Este 31 Este 0 941.5 -1.9 33
2019-06-06 16:00:00 25.8 8 Este 32 Este 0 942 -2 33
2019-06-06 15:00:00 24.9 13 Este 30 Este 0 942.8 -1.7 30
2019-06-06 14:00:00 24.3 15 Este 30 Este 0 943.4 -1.3 30
2019-06-06 13:00:00 23.5 13 Sudeste 22 Sudeste 0 944 -1.3 33
2019-06-06 12:00:00 21.9 10 Este 19 Este 0 944.5 -0.6 33
2019-06-06 11:00:00 20.6 6 Este 13 Norte 0 944.7 0 37
2019-06-06 10:00:00 19.4 0 Calma 8 Nordeste 0 945.3 0.6 39
2019-06-06 09:00:00 16.7 3 Noroeste 14 Noroeste 0 945.1 0.5 42
2019-06-06 08:00:00 14.2 7 Noroeste 15 Oeste 0 944.7 0.1 44
2019-06-06 07:00:00 13.1 11 Oeste 16 Oeste 0 944.7 0 44
2019-06-06 06:00:00 13.1 7 Oeste 13 Oeste 0 944.6 0 44
2019-06-06 05:00:00 13.5 8 Oeste 17 Noroeste 0 944.6 -0.3 42
2019-06-06 04:00:00 14 4 Nordeste 12 Sudoeste 0 944.7 -0.1 40
2019-06-06 03:00:00 15.6 8 Oeste 18 Sudoeste 0 944.6 0 38
2019-06-06 02:00:00 15.1 4 Oeste 17 Oeste 0 944.9 0.7 37
2019-06-06 01:00:00 16.5 8 Oeste 18 Sudoeste 0 944.8 1.4 35
2019-06-06 00:00:00 17.8 11 Sudoeste 19 Oeste 0 944.6 1.4 34
2019-06-05 23:00:00 18.3 11 Sudoeste 24 Oeste 0 944.2 1.5 33
2019-06-05 22:00:00 19.5 11 Sudoeste 19 Sudoeste 0 943.4 1 32
2019-06-05 21:00:00 20.9 13 Oeste 26 Sudoeste 0 943.2 1 30
2019-06-05 20:00:00 21.2 15 Sur 28 Sur 0 942.7 0.8 30
2019-06-05 19:00:00 22.4 15 Sur 35 Sudoeste 0 942.4 0.1 29
2019-06-05 18:00:00 22.6 19 Sudoeste 45 Sudoeste 0 942.2 -0.1 29
2019-06-05 17:00:00 23.5 19 Sudoeste 56 Sudoeste 0 941.9 -0.6 29
2019-06-05 16:00:00 23.4 22 Sudoeste 50 Oeste 0 942.3 -0.2 30
2019-06-05 15:00:00 22.8 19 Sudoeste 47 Sudoeste 0 942.3 0 31
2019-06-05 14:00:00 21.9 24 Sudoeste 46 Sudoeste 0 942.5 0.7 33
2019-06-05 13:00:00 21.3 21 Sudoeste 42 Oeste 0 942.5 1.5 34
2019-06-05 12:00:00 20.4 26 Sudeste 47 Este 0 942.3 2 36
2019-06-05 11:00:00 19.4 27 Nordeste 51 Nordeste 0 941.8 2 44
2019-06-05 10:00:00 19.3 28 Noroeste 50 Noroeste 0 941 1.8 49
2019-06-05 09:00:00 19.4 18 Noroeste 33 Norte 0 940.3 1.5 57
2019-06-05 08:00:00 17.8 17 Norte 32 Norte 0 939.8 0.9 62
2019-06-05 07:00:00 18.5 13 Noroeste 23 Noroeste 0 939.2 0.3 61
2019-06-05 06:00:00 19.3 15 Noroeste 31 Noroeste 0 938.8 -0.6 59
2019-06-05 05:00:00 19.8 18 Noroeste 35 Noroeste 0 938.9 -0.8 59
2019-06-05 04:00:00 18.4 3 Oeste 20 Norte 0 938.9 -1.1 58
2019-06-05 03:00:00 17.7 0 Calma 3 Este 0 939.4 -0.7 54
2019-06-05 02:00:00 17.9 0 Calma 4 Sur 0 939.7 -0.4 51
2019-06-05 01:00:00 17.9 0 Calma 7 Noroeste 0 940 0.6 49
2019-06-05 00:00:00 19.5 4 Noroeste 6 Noroeste 0 940.1 0.8 43
2019-06-04 23:00:00 22.3 5 Sudoeste 14 Sudoeste 0 940.1 0.8 38
2019-06-04 22:00:00 23.9 8 Sur 17 Sudoeste 0 939.4 0 37
2019-06-04 21:00:00 26.2 7 Sudoeste 29 Sudoeste 0 939.3 -0.6 34
2019-06-04 20:00:00 28.7 13 Sur 27 Sudoeste 0 939.3 -1 31
2019-06-04 19:00:00 29.9 15 Sudoeste 27 Sudoeste 0 939.4 -1.6 28
2019-06-04 18:00:00 30.4 15 Sudoeste 26 Sudoeste 0 939.9 -1.5 27
2019-06-04 17:00:00 31.1 13 Sudoeste 26 Sudoeste 0 940.3 -2.3 27
2019-06-04 16:00:00 31 11 Sur 25 Sur 0 941 -2.3 26
2019-06-04 15:00:00 30.7 8 Sur 20 Sudoeste 0 941.4 -2.4 27
2019-06-04 14:00:00 29.7 6 Sudoeste 19 Sudoeste 0 942.6 -1.6 29
2019-06-04 13:00:00 28.4 7 Sudoeste 18 Sudoeste 0 943.3 -1.4 33
2019-06-04 12:00:00 26.3 6 Sudoeste 14 Sudoeste 0 943.8 -0.9 38
2019-06-04 11:00:00 24.4 5 Sudoeste 12 Sudoeste 0 944.2 -0.1 42
2019-06-04 10:00:00 22.2 4 Sudoeste 9 Sudoeste 0 944.7 0.4 46
2019-06-04 09:00:00 20.1 2 Sur 4 Sur 0 944.7 0.4 50
2019-06-04 08:00:00 17.3 0 Calma 6 Nordeste 0 944.3 0.1 57
2019-06-04 07:00:00 15.1 4 Nordeste 5 Este 0 944.3 -0.5 58
2019-06-04 06:00:00 15.9 3 Nordeste 5 Nordeste 0 944.3 -0.9 56
2019-06-04 05:00:00 16.4 0 Calma 4 Este 0 944.2 -1.7 55
2019-06-04 04:00:00 17 0 Calma 2 Este 0 944.8 -1.7 55
2019-06-04 03:00:00 16.3 0 Calma 6 Noroeste 0 945.2 -1.6 55
2019-06-04 02:00:00 17.4 2 Noroeste 4 Noroeste 0 945.9 -1 52
2019-06-04 01:00:00 18.7 0 Calma 2 Noroeste 0 946.5 0.2 48
2019-06-04 00:00:00 20.3 0 Calma 4 Sur 0 946.8 0.9 45
2019-06-03 23:00:00 21.6 3 Sur 9 Sudoeste 0 946.9 1 42
2019-06-03 22:00:00 23.2 4 Sur 14 Sudoeste 0 946.3 0.4 40
2019-06-03 21:00:00 25.7 7 Sudoeste 20 Sur 0 945.9 -0.2 34
2019-06-03 20:00:00 27.3 9 Sudoeste 26 Sudoeste 0 945.9 -0.4 31
2019-06-03 19:00:00 28.9 16 Sudoeste 28 Sudoeste 0 945.9 -1.1 30
2019-06-03 18:00:00 30.2 13 Sudoeste 25 Sudoeste 0 946.1 -1.6 27
2019-06-03 17:00:00 29.3 12 Sudoeste 23 Sudoeste 0 946.3 -2.1 27
2019-06-03 16:00:00 30.4 13 Sudoeste 25 Sudoeste 0 947 -1.9 27
2019-06-03 15:00:00 29.2 8 Sur 20 Sudoeste 0 947.7 -1.7 27
2019-06-03 14:00:00 28 11 Sudoeste 22 Sudoeste 0 948.4 -1.1 30
2019-06-03 13:00:00 26.4 7 Sur 17 Sudoeste 0 948.9 -0.5 33
2019-06-03 12:00:00 23.9 6 Sudoeste 14 Sudoeste 0 949.4 0.2 37
2019-06-03 11:00:00 21.7 6 Sudoeste 12 Sudoeste 0 949.5 0.6 40
2019-06-03 10:00:00 20.6 6 Sudoeste 10 Oeste 0 949.4 0.6 44
2019-06-03 09:00:00 19.1 2 Sur 5 Sur 0 949.2 0.6 45
2019-06-03 08:00:00 16.2 0 Calma 10 Nordeste 0 948.9 0.2 53
2019-06-03 07:00:00 14.4 0 Calma 5 Este 0 948.8 -0.1 56
2019-06-03 06:00:00 14.3 0 Calma 4 Este 0 948.6 -0.7 56
2019-06-03 05:00:00 14 0 Calma 3 Noroeste 0 948.7 -1.1 54
2019-06-03 04:00:00 14.8 0 Calma 4 Noroeste 0 948.9 -1.1 50
2019-06-03 03:00:00 15.5 0 Calma 4 Sur 0 949.3 -0.8 46
2019-06-03 02:00:00 15.9 0 Calma 8 Sudoeste 0 949.8 0 43
2019-06-03 01:00:00 17.4 3 Sudoeste 13 Sudoeste 0 950 0.8 40
2019-06-03 00:00:00 18.9 9 Sudoeste 17 Sudoeste 0 950.1 1.3 38
2019-06-02 23:00:00 19.5 5 Sudoeste 14 Sudoeste 0 949.8 1.6 37
2019-06-02 22:00:00 21.2 8 Sudoeste 21 Sudoeste 0 949.2 1 32
2019-06-02 21:00:00 23.8 10 Sudoeste 25 Sudoeste 0 948.8 0.3 28
2019-06-02 20:00:00 26.3 14 Sudoeste 24 Sudoeste 0 948.2 -0.6 25
2019-06-02 19:00:00 28.3 12 Sudoeste 27 Sur 0 948.2 -0.8 24
2019-06-02 18:00:00 28.9 9 Sudoeste 24 Sudoeste 0 948.5 -1 24
2019-06-02 17:00:00 28.8 10 Sudoeste 23 Sudoeste 0 948.8 -1.3 24
2019-06-02 16:00:00 28.1 8 Sur 21 Sudoeste 0 949 -1.9 24
2019-06-02 15:00:00 27.5 6 Sur 19 Sudoeste 0 949.5 -1.5 26
2019-06-02 14:00:00 26.1 6 Sudoeste 18 Sudoeste 0 950.1 -1.2 30
2019-06-02 13:00:00 24.7 7 Sudoeste 17 Sudoeste 0 950.9 -0.3 33
2019-06-02 12:00:00 22.8 8 Sudoeste 17 Sudoeste 0 951 -0.2 34
2019-06-02 11:00:00 21 9 Sudoeste 15 Sudoeste 0 951.3 0.3 38
2019-06-02 10:00:00 19.6 4 Sudoeste 10 Sudoeste 0 951.2 0.5 41
2019-06-02 09:00:00 18.1 0 Calma 7 Este 0 951.2 0.5 44
2019-06-02 08:00:00 15.4 4 Este 6 Este 0 951 0.1 49
2019-06-02 07:00:00 13 3 Nordeste 5 Este 0 950.7 -0.5 51
2019-06-02 06:00:00 13.4 0 Calma 2 Este 0 950.7 -0.9 51
2019-06-02 05:00:00 13.4 0 Calma 3 Noroeste 0 950.9 -0.9 51
2019-06-02 04:00:00 13.4 0 Calma 5 Noroeste 0 951.2 -0.9 49
2019-06-02 03:00:00 14 2 Noroeste 4 Noroeste 0 951.6 -0.4 47
2019-06-02 02:00:00 14.5 4 Sudoeste 6 Sudoeste 0 951.8 0 45
2019-06-02 01:00:00 14.7 3 Noroeste 6 Oeste 0 952.1 1.3 43
2019-06-02 00:00:00 16.6 5 Sudoeste 11 Sudoeste 0 952 1.4 39
2019-06-01 23:00:00 17.7 7 Sudoeste 17 Sudoeste 0 951.8 1.5 36
2019-06-01 22:00:00 19.6 9 Sudoeste 21 Sudoeste 0 950.8 0.7 33
2019-06-01 21:00:00 22.4 11 Sudoeste 22 Sudoeste 0 950.6 0.2 30
2019-06-01 20:00:00 24.6 13 Sudoeste 26 Sudoeste 0 950.3 -0.3 28
2019-06-01 19:00:00 26.3 11 Sudoeste 23 Sudoeste 0 950.1 -1 27
2019-06-01 18:00:00 27 10 Sudoeste 22 Sudoeste 0 950.4 -1.2 27
2019-06-01 17:00:00 27.2 8 Sudoeste 25 Oeste 0 950.6 -1.5 27
2019-06-01 16:00:00 26.7 12 Sudoeste 22 Oeste 0 951.1 -1.6 28
2019-06-01 15:00:00 25.9 11 Oeste 24 Sudoeste 0 951.6 -1.6 29
2019-06-01 14:00:00 24.7 7 Sudoeste 17 Sudoeste 0 952.1 -1 32
2019-06-01 13:00:00 23.3 6 Oeste 17 Sudoeste 0 952.7 -0.7 39
2019-06-01 12:00:00 21.5 4 Sudoeste 16 Oeste 0 953.2 -0.1 45
2019-06-01 11:00:00 20.1 8 Oeste 16 Sudoeste 0 953.1 0.2 46
2019-06-01 10:00:00 18.6 3 Oeste 9 Oeste 0 953.4 0.8 53
2019-06-01 09:00:00 17 3 Sudoeste 5 Sudoeste 0 953.3 0.8 59
2019-06-01 08:00:00 14.1 0 Calma 9 Nordeste 0 952.9 0.3 70
2019-06-01 07:00:00 12.1 4 Este 6 Este 0 952.6 -0.3 71
2019-06-01 06:00:00 12.9 3 Este 5 Este 0 952.5 -0.6 67
2019-06-01 05:00:00 13 0 Calma 4 Este 0 952.6 -0.9 65
2019-06-01 04:00:00 13.7 0 Calma 3 Este 0 952.9 -0.9 63
2019-06-01 03:00:00 13.9 0 Calma 2 Norte 0 953.1 -1 61
2019-06-01 02:00:00 14.3 0 Calma 3 Oeste 0 953.5 -0.2 60
2019-06-01 01:00:00 15 0 Calma 13 Sudoeste 0 953.8 0.9 57
2019-06-01 00:00:00 15.5 4 Oeste 8 Sudoeste 0 954.1 1.9 53
2019-05-31 23:00:00 17.3 5 Sudoeste 17 Sudoeste 0 953.7 1.6 47
2019-05-31 22:00:00 18.7 11 Sudoeste 21 Sudoeste 0 952.9 0.8 45
2019-05-31 21:00:00 20.9 14 Sudoeste 23 Sudoeste 0 952.2 -0.3 40
2019-05-31 20:00:00 24 10 Sudoeste 22 Sudoeste 0 952.1 -0.5 36
2019-05-31 19:00:00 25.3 11 Sudoeste 23 Oeste 0 952.1 -1 33
2019-05-31 18:00:00 25.9 12 Sudoeste 23 Sudoeste 0 952.5 -1 31
2019-05-31 17:00:00 26 13 Oeste 27 Sudoeste 0 952.6 -1.4 31
2019-05-31 16:00:00 25.8 10 Oeste 26 Oeste 0 953.1 -1.4 31
2019-05-31 15:00:00 24.9 8 Sudoeste 28 Sudoeste 0 953.5 -1.4 33
2019-05-31 14:00:00 24.1 10 Sudoeste 22 Oeste 0 954 -1.1 35
2019-05-31 13:00:00 23.2 8 Sudoeste 22 Oeste 0 954.5 -0.5 36
2019-05-31 12:00:00 21.9 13 Oeste 21 Oeste 0 954.9 0.1 41
2019-05-31 11:00:00 20.3 7 Sudoeste 14 Oeste 0 955.1 0.5 45
2019-05-31 10:00:00 18 2 Sur 7 Sudoeste 0 955 0.6 65
2019-05-31 09:00:00 16.1 2 Sur 6 Sudeste 0 954.8 0.8 75
2019-05-31 08:00:00 13.6 4 Este 8 Este 0 954.6 0.3 92
2019-05-31 07:00:00 11.5 4 Este 6 Este 0 954.4 -0.1 95
2019-05-31 06:00:00 11.5 0 Calma 3 Sudeste 0 954 -1.1 94
2019-05-31 05:00:00 11.5 0 Calma 0 Calma 0 954.3 -1.2 93
2019-05-31 04:00:00 12.1 0 Calma 2 Norte 0 954.5 -0.9 91
2019-05-31 03:00:00 12.5 3 Norte 7 Oeste 0 955.1 -0.3 87
2019-05-31 02:00:00 13.6 4 Oeste 13 Oeste 0 955.5 0.3 82
2019-05-31 01:00:00 14.6 8 Oeste 15 Sudoeste 0 955.4 0.9 74
2019-05-31 00:00:00 15.1 8 Oeste 12 Oeste 0 955.4 1.7 66
2019-05-30 23:00:00 16.6 7 Oeste 13 Oeste 0 955.2 2.1 58
2019-05-30 22:00:00 18 7 Oeste 14 Sudoeste 0 954.5 1.5 51
2019-05-30 21:00:00 20.5 6 Sudoeste 25 Oeste 0 953.7 0.3 41
2019-05-30 20:00:00 22.6 14 Sudoeste 24 Sudoeste 0 953.1 -0.8 36
2019-05-30 19:00:00 24.1 8 Oeste 21 Sudoeste 0 953 -1 35
2019-05-30 18:00:00 24.3 9 Sudoeste 22 Sudoeste 0 953.4 -1.1 34
2019-05-30 17:00:00 24.5 8 Sudoeste 26 Oeste 0 953.9 -0.9 33
2019-05-30 16:00:00 24.2 7 Sudoeste 22 Sudoeste 0 954 -1.1 33
2019-05-30 15:00:00 23.6 6 Sudoeste 21 Oeste 0 954.5 -0.9 34
2019-05-30 14:00:00 22.4 9 Oeste 22 Oeste 0 954.8 -0.7 36
2019-05-30 13:00:00 21.4 9 Sudoeste 23 Oeste 0 955.1 -0.2 40
2019-05-30 12:00:00 19.8 10 Oeste 21 Oeste 0 955.4 0.3 43
2019-05-30 11:00:00 18.5 9 Oeste 15 Oeste 0 955.5 0.7 48
2019-05-30 10:00:00 16.7 3 Oeste 9 Oeste 0 955.3 0.9 61
2019-05-30 09:00:00 15.2 2 Sudoeste 6 Sudoeste 0 955.1 1.2 68
2019-05-30 08:00:00 12.9 3 Sudeste 5 Sudeste 0 954.8 0.8 74
2019-05-30 07:00:00 10.5 0 Calma 6 Este 0 954.4 0.3 78
2019-05-30 06:00:00 10.7 4 Este 6 Este 0 953.9 -0.2 78
2019-05-30 05:00:00 10.7 0 Calma 6 Norte 0 954 -0.4 78
2019-05-30 04:00:00 10.9 2 Norte 5 Norte 0 954.1 -0.1 75
2019-05-30 03:00:00 12 0 Calma 4 Noroeste 0 954.1 0.2 70
2019-05-30 02:00:00 13.1 2 Oeste 11 Oeste 0 954.4 1.3 63
2019-05-30 01:00:00 13.7 6 Oeste 12 Oeste 0 954.2 2 61
2019-05-30 00:00:00 14.3 5 Oeste 15 Oeste 0 953.9 2.8 60
2019-05-29 23:00:00 15.6 9 Oeste 19 Sudoeste 0 953.1 3 55
2019-05-29 22:00:00 16.6 7 Sudoeste 22 Sudoeste 0 952.2 2.7 50
2019-05-29 21:00:00 18.5 12 Oeste 23 Oeste 0 951.1 1.5 44
2019-05-29 20:00:00 21.4 15 Oeste 25 Oeste 0 950.1 0.2 34
2019-05-29 19:00:00 25.2 8 Este 26 Este 0 949.5 -0.6 22
2019-05-29 18:00:00 25 14 Sudeste 28 Este 0 949.6 -0.8 22
2019-05-29 17:00:00 24.5 12 Este 27 Este 0 949.9 -0.7 24
2019-05-29 16:00:00 23.8 13 Este 28 Este 0 950.1 -0.9 25
2019-05-29 15:00:00 23.2 14 Este 28 Sudeste 0 950.4 -0.9 25
2019-05-29 14:00:00 21.9 10 Este 23 Este 0 950.6 -0.5 29
2019-05-29 13:00:00 20.2 8 Este 24 Este 0 951 -0.1 32
2019-05-29 12:00:00 19.2 12 Nordeste 23 Nordeste 0 951.3 0.4 36
2019-05-29 11:00:00 17.4 8 Nordeste 20 Nordeste 0 951.1 0.7 44
2019-05-29 10:00:00 16.3 9 Nordeste 18 Nordeste 0 951.1 1.3 53
2019-05-29 09:00:00 14 14 Nordeste 21 Nordeste 0 950.9 1.7 60
2019-05-29 08:00:00 12.7 12 Este 23 Este 0 950.4 1.4 70
2019-05-29 07:00:00 12.1 12 Nordeste 19 Nordeste 0 949.8 0.9 81
2019-05-29 06:00:00 12.8 14 Nordeste 20 Nordeste 0 949.2 0.2 82
2019-05-29 05:00:00 13 5 Nordeste 17 Nordeste 0 949 0.3 81
2019-05-29 04:00:00 13.6 4 Norte 6 Norte 0 948.9 0.5 82
2019-05-29 03:00:00 15.1 0 Calma 4 Sudeste 0 949 1.3 77
2019-05-29 02:00:00 15.7 0 Calma 5 Sur 0 948.7 1.6 85
2019-05-29 01:00:00 16.5 0 Calma 8 Sudoeste 0 948.4 2.5 89
2019-05-29 00:00:00 17.2 2 Sudoeste 12 Sudoeste 0 947.7 2.9 83
2019-05-28 23:00:00 18.5 9 Sudoeste 15 Oeste 0 947.1 3.2 74
2019-05-28 22:00:00 20.9 4 Sudoeste 13 Oeste 0 945.9 2.9 58
2019-05-28 21:00:00 25.3 2 Nordeste 30 Norte 0 944.8 2.1 30
2019-05-28 20:00:00 26.4 10 Norte 33 Nordeste 0 943.9 1.1 37
2019-05-28 19:00:00 28.3 15 Nordeste 36 Este 0 943 -0.5 28
2019-05-28 18:00:00 28.3 17 Nordeste 34 Norte 0 942.7 -1.1 30
2019-05-28 17:00:00 28.3 13 Nordeste 29 Norte 0 942.8 -1.3 31
2019-05-28 16:00:00 27.8 15 Nordeste 33 Norte 0 943.5 -0.8 32
2019-05-28 15:00:00 27.4 12 Norte 32 Norte 0 943.8 -0.8 32
2019-05-28 14:00:00 26.5 5 Nordeste 23 Este 0 944.1 -0.6 36
2019-05-28 13:00:00 24.9 7 Nordeste 18 Nordeste 0 944.3 -0.3 42
2019-05-28 12:00:00 23 4 Sudoeste 12 Sur 0 944.6 0.2 49
2019-05-28 11:00:00 21.7 2 Oeste 9 Sudoeste 0 944.7 0.6 53
2019-05-28 10:00:00 20.3 2 Sur 10 Sur 0 944.6 0.9 58
2019-05-28 09:00:00 17.8 6 Nordeste 14 Nordeste 0 944.4 0.9 68
2019-05-28 08:00:00 16 7 Nordeste 17 Nordeste 0 944.1 0.6 75
2019-05-28 07:00:00 14.4 9 Nordeste 19 Nordeste 0 943.7 0.6 80
2019-05-28 06:00:00 14.9 11 Nordeste 20 Nordeste 0 943.5 0.4 78
2019-05-28 05:00:00 15.8 10 Nordeste 17 Nordeste 0 943.5 0.9 75
2019-05-28 04:00:00 16.5 6 Nordeste 11 Este 0 943.1 0.3 72
2019-05-28 03:00:00 16.4 5 Nordeste 17 Este 0 943.1 0.4 70
2019-05-28 02:00:00 18.6 2 Sudeste 6 Sudeste 0 942.6 0.3 57
2019-05-28 01:00:00 19.8 2 Sudeste 8 Sudeste 0 942.8 0.8 52
2019-05-28 00:00:00 20.4 2 Sudeste 8 Sudeste 0 942.7 1.1 51
2019-05-27 23:00:00 21 4 Sudoeste 14 Sudoeste 0 942.3 1.2 48
2019-05-27 22:00:00 21.9 9 Sudoeste 26 Sudoeste 0 942 1 45
2019-05-27 21:00:00 24.6 11 Sudoeste 22 Sudoeste 0 941.6 0.4 34
2019-05-27 20:00:00 27.4 9 Nordeste 23 Nordeste 0 941.1 -0.3 27
2019-05-27 19:00:00 27.1 15 Nordeste 31 Nordeste 0 941 -1.2 27
2019-05-27 18:00:00 28.3 15 Nordeste 36 Nordeste 0 941.2 -1.6 27
2019-05-27 17:00:00 28.3 14 Nordeste 31 Nordeste 0 941.4 -2 27
2019-05-27 16:00:00 27.7 15 Nordeste 29 Nordeste 0 942.2 -1.8 25
2019-05-27 15:00:00 27.2 15 Nordeste 33 Nordeste 0 942.8 -1.4 28
2019-05-27 14:00:00 25.8 17 Nordeste 37 Nordeste 0 943.4 -1.1 30
2019-05-27 13:00:00 24.8 11 Nordeste 22 Nordeste 0 944 -1.1 34
2019-05-27 12:00:00 23.1 12 Norte 21 Nordeste 0 944.2 -0.7 39
2019-05-27 11:00:00 21 9 Nordeste 17 Nordeste 0 944.5 -0.2 49
2019-05-27 10:00:00 19.7 10 Nordeste 18 Norte 0 945.1 0.4 55
2019-05-27 09:00:00 16 8 Nordeste 15 Nordeste 0 944.9 0.3 75
2019-05-27 08:00:00 14.5 0 Calma 7 Nordeste 0 944.7 -0.2 84
2019-05-27 07:00:00 12.8 6 Nordeste 15 Nordeste 0 944.7 -0.5 89
2019-05-27 06:00:00 12.8 6 Nordeste 13 Nordeste 0 944.6 -0.9 89
2019-05-27 05:00:00 13.3 7 Nordeste 12 Nordeste 0 944.9 -1.2 86
2019-05-27 04:00:00 13.5 0 Calma 13 Nordeste 0 945.2 -1.2 84
2019-05-27 03:00:00 14.3 8 Nordeste 13 Nordeste 0 945.5 -1.1 82
2019-05-27 02:00:00 15.2 2 Este 7 Este 0 946.1 -0.1 75
2019-05-27 01:00:00 15.8 3 Este 11 Este 0 946.4 0.8 70
2019-05-27 00:00:00 17.2 6 Este 12 Este 0 946.6 2.1 63